createdAt,value
2022-08-21T00:00:28.306Z,3.60
2022-08-21T00:02:57.917Z,3.72
2022-08-21T00:05:26.084Z,3.58
2022-08-21T00:07:54.880Z,3.50
2022-08-21T00:10:21.971Z,3.65
2022-08-21T00:12:49.341Z,3.75
2022-08-21T00:15:19.374Z,3.17
2022-08-21T00:17:47.253Z,3.28
2022-08-21T00:20:16.235Z,3.70
2022-08-21T00:22:43.500Z,3.45
2022-08-21T00:25:12.515Z,4.07
2022-08-21T00:27:39.725Z,4.03
2022-08-21T00:30:08.206Z,3.58
2022-08-21T00:32:38.631Z,3.45
2022-08-21T00:37:35.373Z,3.78
2022-08-21T00:40:02.465Z,3.90
2022-08-21T00:42:30.945Z,3.28
2022-08-21T00:44:57.592Z,3.80
2022-08-21T00:47:24.184Z,3.30
2022-08-21T00:49:50.894Z,3.60
2022-08-21T00:52:22.829Z,3.50
2022-08-21T00:54:50.806Z,3.55
2022-08-21T00:57:24.208Z,3.67
2022-08-21T00:59:56.951Z,3.70
2022-08-21T01:02:23.628Z,3.25
2022-08-21T01:04:50.308Z,4.97
2022-08-21T01:07:17.811Z,3.53
2022-08-21T01:09:47.797Z,3.90
2022-08-21T01:12:15.737Z,3.72
2022-08-21T01:14:43.304Z,3.90
2022-08-21T01:17:12.430Z,4.30
2022-08-21T01:19:39.534Z,3.88
2022-08-21T01:22:07.841Z,3.63
2022-08-21T01:24:34.686Z,3.72
2022-08-21T01:27:01.781Z,3.80
2022-08-21T01:29:36.794Z,4.70
2022-08-21T01:32:08.303Z,4.07
2022-08-21T01:34:37.327Z,4.05
2022-08-21T01:37:03.963Z,3.78
2022-08-21T01:39:32.484Z,3.97
2022-08-21T01:41:59.130Z,4.10
2022-08-21T01:44:26.810Z,4.40
2022-08-21T01:46:53.590Z,4.38
2022-08-21T01:49:21.026Z,4.25
2022-08-21T01:51:47.932Z,4.05
2022-08-21T01:54:14.726Z,3.63
2022-08-21T01:56:46.842Z,4.10
2022-08-21T01:59:13.513Z,4.10
2022-08-21T02:01:40.081Z,4.25
2022-08-21T02:04:07.393Z,3.65
2022-08-21T02:06:34.509Z,4.32
2022-08-21T02:09:01.372Z,4.25
2022-08-21T02:11:27.930Z,3.83
2022-08-21T02:13:55.913Z,3.67
2022-08-21T02:16:22.563Z,3.92
2022-08-21T02:18:49.202Z,4.00
2022-08-21T02:21:15.778Z,4.38
2022-08-21T02:23:42.410Z,4.13
2022-08-21T02:26:09.861Z,4.40
2022-08-21T02:28:37.418Z,4.53
2022-08-21T02:31:06.509Z,3.90
2022-08-21T02:33:33.203Z,4.03
2022-08-21T02:35:59.853Z,4.50
2022-08-21T02:38:28.819Z,4.47
2022-08-21T02:40:56.241Z,4.40
2022-08-21T02:43:25.386Z,4.30
2022-08-21T02:45:52.906Z,4.38
2022-08-21T02:48:23.604Z,4.38
2022-08-21T02:50:55.220Z,3.95
2022-08-21T02:53:21.948Z,3.78
2022-08-21T02:55:51.061Z,3.85
2022-08-21T02:58:25.710Z,4.57
2022-08-21T03:00:52.810Z,4.78
2022-08-21T03:03:20.985Z,4.53
2022-08-21T03:05:48.593Z,4.50
2022-08-21T03:08:16.127Z,4.57
2022-08-21T03:10:45.934Z,4.97
2022-08-21T03:13:13.325Z,4.32
2022-08-21T03:15:40.276Z,4.50
2022-08-21T03:18:07.416Z,4.93
2022-08-21T03:20:37.249Z,4.47
2022-08-21T03:23:06.172Z,5.07
2022-08-21T03:25:42.068Z,5.00
2022-08-21T03:28:13.135Z,4.53
2022-08-21T03:30:40.284Z,3.80
2022-08-21T03:33:06.835Z,4.03
2022-08-21T03:35:34.830Z,4.30
2022-08-21T03:38:01.409Z,4.38
2022-08-21T03:40:28.491Z,4.90
2022-08-21T03:42:55.087Z,4.43
2022-08-21T03:45:22.002Z,4.90
2022-08-21T03:47:53.674Z,3.97
2022-08-21T03:52:48.219Z,4.65
2022-08-21T03:55:14.906Z,4.50
2022-08-21T03:57:41.515Z,4.65
2022-08-21T04:00:09.982Z,4.22
2022-08-21T04:02:36.579Z,5.15
2022-08-21T04:05:04.031Z,4.45
2022-08-21T04:07:30.565Z,4.63
2022-08-21T04:09:58.606Z,4.28
2022-08-21T04:12:25.179Z,4.10
2022-08-21T04:14:52.055Z,4.32
2022-08-21T04:17:18.814Z,4.53
2022-08-21T04:19:46.989Z,4.72
2022-08-21T04:22:16.365Z,4.63
2022-08-21T04:24:43.072Z,4.30
2022-08-21T04:27:11.059Z,4.20
2022-08-21T04:29:40.064Z,4.70
2022-08-21T04:32:07.143Z,4.07
2022-08-21T04:34:33.885Z,4.10
2022-08-21T04:37:00.557Z,4.38
2022-08-21T04:39:29.668Z,4.97
2022-08-21T04:41:56.695Z,4.32
2022-08-21T04:44:24.590Z,4.32
2022-08-21T04:46:51.223Z,3.97
2022-08-21T04:49:17.805Z,4.57
2022-08-21T04:51:45.709Z,4.93
2022-08-21T04:54:17.886Z,4.63
2022-08-21T04:56:47.917Z,4.30
2022-08-21T04:59:18.442Z,4.53
2022-08-21T05:01:46.804Z,4.22
2022-08-21T05:04:17.319Z,3.95
2022-08-21T05:06:47.375Z,3.92
2022-08-21T05:09:17.279Z,4.45
2022-08-21T05:11:44.572Z,4.60
2022-08-21T05:14:11.628Z,4.57
2022-08-21T05:16:38.541Z,4.53
2022-08-21T05:19:07.557Z,4.55
2022-08-21T05:21:34.515Z,4.85
2022-08-21T05:24:01.120Z,4.40
2022-08-21T05:26:28.309Z,5.03
2022-08-21T05:28:54.878Z,4.45
2022-08-21T05:31:22.824Z,4.45
2022-08-21T05:33:49.384Z,4.65
2022-08-21T05:36:20.026Z,4.68
2022-08-21T05:38:46.945Z,5.28
2022-08-21T05:41:13.699Z,5.18
2022-08-21T05:43:40.339Z,5.70
2022-08-21T05:46:08.194Z,5.75
2022-08-21T05:48:36.076Z,5.50
2022-08-21T05:51:06.426Z,5.22
2022-08-21T05:53:34.395Z,5.15
2022-08-21T05:56:00.961Z,5.88
2022-08-21T05:58:27.531Z,5.32
2022-08-21T06:00:54.089Z,5.85
2022-08-21T06:03:24.562Z,5.57
2022-08-21T06:05:51.571Z,5.13
2022-08-21T06:08:19.009Z,5.07
2022-08-21T06:10:48.992Z,4.95
2022-08-21T06:13:17.728Z,5.70
2022-08-21T06:15:44.421Z,5.47
2022-08-21T06:18:11.859Z,5.30
2022-08-21T06:20:38.938Z,5.22
2022-08-21T06:23:05.927Z,5.28
2022-08-21T06:25:33.293Z,5.28
2022-08-21T06:28:06.255Z,5.68
2022-08-21T06:30:33.231Z,5.80
2022-08-21T06:33:00.470Z,5.45
2022-08-21T06:35:27.680Z,5.30
2022-08-21T06:37:54.183Z,6.28
2022-08-21T06:40:20.818Z,6.03
2022-08-21T06:42:48.249Z,5.47
2022-08-21T06:45:17.086Z,5.70
2022-08-21T06:47:43.621Z,5.63
2022-08-21T06:50:10.321Z,5.95
2022-08-21T06:52:37.608Z,5.95
2022-08-21T06:55:06.724Z,5.70
2022-08-21T06:57:33.943Z,6.20
2022-08-21T07:00:00.572Z,5.57
2022-08-21T07:02:28.455Z,5.57
2022-08-21T07:04:55.116Z,5.50
2022-08-21T07:07:21.669Z,5.78
2022-08-21T07:09:48.453Z,5.88
2022-08-21T07:12:15.013Z,5.45
2022-08-21T07:14:41.653Z,5.72
2022-08-21T07:17:08.191Z,5.72
2022-08-21T07:19:36.430Z,6.05
2022-08-21T07:22:03.496Z,5.50
2022-08-21T07:24:30.519Z,5.88
2022-08-21T07:26:57.097Z,6.35
2022-08-21T07:29:23.727Z,5.75
2022-08-21T07:31:50.317Z,5.13
2022-08-21T07:34:17.483Z,5.90
2022-08-21T07:36:45.369Z,5.15
2022-08-21T07:39:12.687Z,6.18
2022-08-21T07:41:39.422Z,5.75
2022-08-21T07:44:06.568Z,5.75
2022-08-21T07:46:33.303Z,5.72
2022-08-21T07:49:00.030Z,6.57
2022-08-21T07:51:28.950Z,7.97
2022-08-21T07:53:58.815Z,8.48
2022-08-21T07:56:25.736Z,7.80
2022-08-21T07:58:52.529Z,6.65
2022-08-21T08:01:19.590Z,6.68
2022-08-21T08:03:46.769Z,6.97
2022-08-21T08:06:13.866Z,6.50
2022-08-21T08:08:41.667Z,6.28
2022-08-21T08:11:10.483Z,6.20
2022-08-21T08:13:40.033Z,5.30
2022-08-21T08:16:07.197Z,5.38
2022-08-21T08:18:33.834Z,5.30
2022-08-21T08:21:00.418Z,4.93
2022-08-21T08:23:26.963Z,5.25
2022-08-21T08:25:53.591Z,5.25
2022-08-21T08:28:21.564Z,5.25
2022-08-21T08:30:48.109Z,4.55
2022-08-21T08:33:15.831Z,4.50
2022-08-21T08:35:43.322Z,5.50
2022-08-21T08:38:09.914Z,4.70
2022-08-21T08:40:43.137Z,5.20
2022-08-21T08:43:10.120Z,4.70
2022-08-21T08:45:46.514Z,5.75
2022-08-21T08:48:20.745Z,4.28
2022-08-21T08:50:50.313Z,4.25
2022-08-21T08:53:20.683Z,3.72
2022-08-21T08:55:49.053Z,4.22
2022-08-21T08:58:21.202Z,4.15
2022-08-21T09:00:51.612Z,4.35
2022-08-21T09:03:18.913Z,4.20
2022-08-21T09:05:48.244Z,3.50
2022-08-21T09:08:24.158Z,3.67
2022-08-21T09:11:01.433Z,3.33
2022-08-21T09:13:40.280Z,3.42
2022-08-21T09:16:16.415Z,3.60
2022-08-21T09:18:55.347Z,3.75
2022-08-21T09:21:29.158Z,3.67
2022-08-21T09:24:01.093Z,2.70
2022-08-21T09:26:32.650Z,3.95
2022-08-21T09:29:00.537Z,3.35
2022-08-21T09:31:31.207Z,2.90
2022-08-21T09:33:59.573Z,4.38
2022-08-21T09:36:34.071Z,3.03
2022-08-21T09:39:00.750Z,2.47
2022-08-21T09:41:29.651Z,2.47
2022-08-21T09:43:56.410Z,2.17
2022-08-21T09:46:25.257Z,1.98
2022-08-21T09:48:54.874Z,2.35
2022-08-21T09:51:24.522Z,2.17
2022-08-21T09:53:54.914Z,2.40
2022-08-21T09:56:28.191Z,2.70
2022-08-21T09:58:54.882Z,2.20
2022-08-21T10:01:24.010Z,2.50
2022-08-21T10:04:04.992Z,2.50
2022-08-21T10:06:31.634Z,2.33
2022-08-21T10:09:06.413Z,2.17
2022-08-21T10:11:34.712Z,2.10
2022-08-21T10:14:14.208Z,2.08
2022-08-21T10:16:52.296Z,2.53
2022-08-21T10:19:30.014Z,2.05
2022-08-21T10:22:03.708Z,3.30
2022-08-21T10:24:34.019Z,2.40
2022-08-21T10:27:12.182Z,2.53
2022-08-21T10:29:48.449Z,2.10
2022-08-21T10:32:30.452Z,2.30
2022-08-21T10:35:07.502Z,2.05
2022-08-21T10:37:46.920Z,1.67
2022-08-21T10:40:21.977Z,2.00
2022-08-21T10:43:02.147Z,1.85
2022-08-21T10:45:42.981Z,1.75
2022-08-21T10:48:16.812Z,1.77
2022-08-21T10:50:51.529Z,2.22
2022-08-21T10:53:37.432Z,1.75
2022-08-21T10:56:15.921Z,1.67
2022-08-21T10:58:50.662Z,1.70
2022-08-21T11:01:23.831Z,1.67
2022-08-21T11:04:06.910Z,1.40
2022-08-21T11:06:40.192Z,1.88
2022-08-21T11:09:14.714Z,1.90
2022-08-21T11:11:59.024Z,1.70
2022-08-21T11:14:40.363Z,1.05
2022-08-21T11:17:22.337Z,1.40
2022-08-21T11:19:54.469Z,1.20
2022-08-21T11:22:27.413Z,1.33
2022-08-21T11:25:01.428Z,1.38
2022-08-21T11:27:33.985Z,1.30
2022-08-21T11:30:02.171Z,1.27
2022-08-21T11:32:53.825Z,1.33
2022-08-21T11:35:32.541Z,1.23
2022-08-21T11:38:16.508Z,1.38
2022-08-21T11:40:53.310Z,1.50
2022-08-21T11:43:28.647Z,1.60
2022-08-21T11:45:58.761Z,2.05
2022-08-21T11:48:38.009Z,1.35
2022-08-21T11:51:10.534Z,1.58
2022-08-21T11:53:50.914Z,1.50
2022-08-21T11:56:26.128Z,1.27
2022-08-21T11:58:57.878Z,1.33
2022-08-21T12:01:31.551Z,1.80
2022-08-21T12:04:02.941Z,1.23
2022-08-21T12:06:31.902Z,1.30
2022-08-21T12:09:02.080Z,2.85
2022-08-21T12:11:30.915Z,3.80
2022-08-21T12:14:01.172Z,3.38
2022-08-21T12:16:32.987Z,1.10
2022-08-21T12:19:08.243Z,1.25
2022-08-21T12:21:50.081Z,1.63
2022-08-21T12:24:32.789Z,1.10
2022-08-21T12:27:02.684Z,1.10
2022-08-21T12:29:31.466Z,1.27
2022-08-21T12:32:00.622Z,1.10
2022-08-21T12:34:37.321Z,1.60
2022-08-21T12:37:15.581Z,1.10
2022-08-21T12:39:47.442Z,1.23
2022-08-21T12:42:19.206Z,1.67
2022-08-21T12:44:51.234Z,1.20
2022-08-21T12:47:27.721Z,1.00
2022-08-21T12:50:02.367Z,1.00
2022-08-21T12:52:38.969Z,1.08
2022-08-21T12:55:11.920Z,1.23
2022-08-21T12:57:41.904Z,1.48
2022-08-21T13:00:12.411Z,0.93
2022-08-21T13:02:44.267Z,1.33
2022-08-21T13:05:14.602Z,0.98
2022-08-21T13:07:46.151Z,0.98
2022-08-21T13:10:21.082Z,1.02
2022-08-21T13:12:48.334Z,1.10
2022-08-21T13:15:15.164Z,1.20
2022-08-21T13:17:48.270Z,1.20
2022-08-21T13:20:22.195Z,1.05
2022-08-21T13:22:48.958Z,0.95
2022-08-21T13:25:18.338Z,1.00
2022-08-21T13:27:58.922Z,1.10
2022-08-21T13:30:25.791Z,1.00
2022-08-21T13:32:56.616Z,1.10
2022-08-21T13:35:26.746Z,0.90
2022-08-21T13:37:55.422Z,1.08
2022-08-21T13:40:27.322Z,1.15
2022-08-21T13:42:54.798Z,1.00
2022-08-21T13:45:26.470Z,1.08
2022-08-21T13:47:54.699Z,0.85
2022-08-21T13:50:24.348Z,1.05
2022-08-21T13:52:58.500Z,1.02
2022-08-21T13:55:35.812Z,1.52
2022-08-21T13:58:04.130Z,1.13
2022-08-21T14:00:32.371Z,1.27
2022-08-21T14:03:05.281Z,1.15
2022-08-21T14:05:34.135Z,1.20
2022-08-21T14:08:05.837Z,0.90
2022-08-21T14:10:37.440Z,1.20
2022-08-21T14:13:06.795Z,1.02
2022-08-21T14:15:35.859Z,0.93
2022-08-21T14:18:13.924Z,0.90
2022-08-21T14:20:41.179Z,1.20
2022-08-21T14:23:07.753Z,1.38
2022-08-21T14:25:43.795Z,0.90
2022-08-21T14:28:27.220Z,1.10
2022-08-21T14:30:57.531Z,1.17
2022-08-21T14:33:27.615Z,1.23
2022-08-21T14:35:54.910Z,1.30
2022-08-21T14:38:23.868Z,1.00
2022-08-21T14:40:54.095Z,1.00
2022-08-21T14:43:21.397Z,1.10
2022-08-21T14:45:48.791Z,1.00
2022-08-21T14:48:15.444Z,0.85
2022-08-21T14:50:42.267Z,1.25
2022-08-21T14:53:10.984Z,1.00
2022-08-21T14:55:39.416Z,1.02
2022-08-21T14:58:08.856Z,1.20
2022-08-21T15:00:35.845Z,0.98
2022-08-21T15:03:03.136Z,0.88
2022-08-21T15:05:33.831Z,0.80
2022-08-21T15:08:01.024Z,0.90
2022-08-21T15:10:27.845Z,1.20
2022-08-21T15:12:54.594Z,0.90
2022-08-21T15:15:22.751Z,1.00
2022-08-21T15:17:49.343Z,0.93
2022-08-21T15:20:16.176Z,1.85
2022-08-21T15:22:47.425Z,1.02
2022-08-21T15:25:14.575Z,1.10
2022-08-21T15:27:41.323Z,1.00
2022-08-21T15:30:08.656Z,1.00
2022-08-21T15:32:36.572Z,1.00
2022-08-21T15:35:04.052Z,1.08
2022-08-21T15:37:30.710Z,1.20
2022-08-21T15:39:57.511Z,0.82
2022-08-21T15:42:26.040Z,1.70
2022-08-21T15:44:53.703Z,0.98
2022-08-21T15:47:23.562Z,1.20
2022-08-21T15:49:51.578Z,1.17
2022-08-21T15:52:20.691Z,1.10
2022-08-21T15:54:47.743Z,1.08
2022-08-21T15:57:18.764Z,1.00
2022-08-21T15:59:49.381Z,1.20
2022-08-21T16:02:19.709Z,1.42
2022-08-21T16:04:46.282Z,1.20
2022-08-21T16:07:14.757Z,1.13
2022-08-21T16:09:41.354Z,1.20
2022-08-21T16:12:10.509Z,0.90
2022-08-21T16:14:37.777Z,1.05
2022-08-21T16:17:05.991Z,1.23
2022-08-21T16:19:33.523Z,1.15
2022-08-21T16:22:00.222Z,1.05
2022-08-21T16:24:28.236Z,1.05
2022-08-21T16:26:57.922Z,1.20
2022-08-21T16:29:29.413Z,1.20
2022-08-21T16:31:56.179Z,1.17
2022-08-21T16:34:22.720Z,1.20
2022-08-21T16:36:49.403Z,1.10
2022-08-21T16:39:15.987Z,1.40
2022-08-21T16:41:43.995Z,1.40
2022-08-21T16:44:11.178Z,1.10
2022-08-21T16:46:40.517Z,1.60
2022-08-21T16:49:07.538Z,1.10
2022-08-21T16:51:34.324Z,1.00
2022-08-21T16:54:01.014Z,1.10
2022-08-21T16:56:27.900Z,1.02
2022-08-21T16:58:58.119Z,1.08
2022-08-21T17:01:28.101Z,1.40
2022-08-21T17:03:54.745Z,1.20
2022-08-21T17:06:23.341Z,1.30
2022-08-21T17:08:55.673Z,1.20
2022-08-21T17:11:36.657Z,0.77
2022-08-21T17:14:07.940Z,1.00
2022-08-21T17:16:35.147Z,1.00
2022-08-21T17:19:01.723Z,1.30
2022-08-21T17:21:28.277Z,1.17
2022-08-21T17:23:54.848Z,1.20
2022-08-21T17:26:21.402Z,1.02
2022-08-21T17:28:50.907Z,1.00
2022-08-21T17:31:21.097Z,1.60
2022-08-21T17:33:51.142Z,1.35
2022-08-21T17:36:18.366Z,1.70
2022-08-21T17:38:45.022Z,1.30
2022-08-21T17:41:12.317Z,1.00
2022-08-21T17:43:39.729Z,1.13
2022-08-21T17:46:07.239Z,0.90
2022-08-21T17:48:35.274Z,1.00
2022-08-21T17:51:03.581Z,1.20
2022-08-21T17:53:30.179Z,1.20
2022-08-21T17:55:56.975Z,0.80
2022-08-21T17:58:23.712Z,1.42
2022-08-21T18:00:50.391Z,1.10
2022-08-21T18:03:21.457Z,1.00
2022-08-21T18:05:51.050Z,1.30
2022-08-21T18:08:18.078Z,1.45
2022-08-21T18:10:48.136Z,1.30
2022-08-21T18:13:20.893Z,1.20
2022-08-21T18:15:51.100Z,1.00
2022-08-21T18:18:17.993Z,1.10
2022-08-21T18:20:44.689Z,1.48
2022-08-21T18:23:12.821Z,0.95
2022-08-21T18:25:39.957Z,0.88
2022-08-21T18:28:08.009Z,0.95
2022-08-21T18:30:39.387Z,0.95
2022-08-21T18:33:08.477Z,1.05
2022-08-21T18:35:35.470Z,1.20
2022-08-21T18:38:02.111Z,1.15
2022-08-21T18:40:31.305Z,0.90
2022-08-21T18:43:01.059Z,1.10
2022-08-21T18:45:28.436Z,1.20
2022-08-21T18:47:57.532Z,1.05
2022-08-21T18:50:26.560Z,1.35
2022-08-21T18:52:53.771Z,1.10
2022-08-21T18:55:42.920Z,1.20
2022-08-21T18:58:10.034Z,0.95
2022-08-21T19:00:44.295Z,1.38
2022-08-21T19:03:12.053Z,0.90
2022-08-21T19:05:38.769Z,1.17
2022-08-21T19:08:06.350Z,1.00
2022-08-21T19:10:32.967Z,1.40
2022-08-21T19:13:01.368Z,0.90
2022-08-21T19:18:18.067Z,1.00
2022-08-21T19:20:47.409Z,1.15
2022-08-21T19:23:16.244Z,1.13
2022-08-21T19:25:45.559Z,1.08
2022-08-21T19:28:25.759Z,1.30
2022-08-21T19:30:57.168Z,1.10
2022-08-21T19:33:28.675Z,0.90
2022-08-21T19:35:55.633Z,0.98
2022-08-21T19:38:22.694Z,1.30
2022-08-21T19:40:49.809Z,1.20
2022-08-21T19:43:16.549Z,1.17
2022-08-21T19:45:53.481Z,1.13
2022-08-21T19:48:20.386Z,1.08
2022-08-21T19:50:46.930Z,1.20
2022-08-21T19:53:13.685Z,1.30
2022-08-21T19:55:42.792Z,1.20
2022-08-21T20:01:16.393Z,1.25
2022-08-21T20:03:44.914Z,1.20
2022-08-21T20:06:20.857Z,1.40
2022-08-21T20:08:47.751Z,1.30
2022-08-21T20:11:19.518Z,1.85
2022-08-21T20:13:46.204Z,1.40
2022-08-21T20:16:14.412Z,1.50
2022-08-21T20:18:41.545Z,1.40
2022-08-21T20:21:08.694Z,1.20
2022-08-21T20:23:35.605Z,1.45
2022-08-21T20:26:10.591Z,1.30
2022-08-21T20:28:37.628Z,1.35
2022-08-21T20:31:06.668Z,1.50
2022-08-21T20:33:37.929Z,1.60
2022-08-21T20:36:05.051Z,1.40
2022-08-21T20:38:31.632Z,1.48
2022-08-21T20:40:58.416Z,1.52
2022-08-21T20:43:26.622Z,1.35
2022-08-21T20:45:55.046Z,1.30
2022-08-21T20:48:25.295Z,1.40
2022-08-21T20:51:00.575Z,1.27
2022-08-21T20:56:36.085Z,1.25
2022-08-21T20:59:10.907Z,1.48
2022-08-21T21:01:38.432Z,1.38
2022-08-21T21:04:18.683Z,1.42
2022-08-21T21:06:49.933Z,1.63
2022-08-21T21:09:40.377Z,1.30
2022-08-21T21:12:14.825Z,1.20
2022-08-21T21:14:45.349Z,1.15
2022-08-21T21:17:19.036Z,1.50
2022-08-21T21:20:01.491Z,1.20
2022-08-21T21:22:35.173Z,1.35
2022-08-21T21:25:07.901Z,1.25
2022-08-21T21:27:38.152Z,1.20
2022-08-21T21:30:12.038Z,1.50
2022-08-21T21:32:38.866Z,1.40
2022-08-21T21:35:07.625Z,1.45
2022-08-21T21:37:42.130Z,1.48
2022-08-21T21:40:25.373Z,1.20
2022-08-21T21:43:02.822Z,1.50
2022-08-21T21:45:37.071Z,1.30
2022-08-21T21:48:15.757Z,1.08
2022-08-21T21:50:54.683Z,1.30
2022-08-21T21:53:51.660Z,1.27
2022-08-21T21:56:29.256Z,1.33
2022-08-21T21:59:24.383Z,1.40
2022-08-21T22:02:06.245Z,1.35
2022-08-21T22:04:43.176Z,2.38
2022-08-21T22:07:28.272Z,1.45
2022-08-21T22:10:19.688Z,1.67
2022-08-21T22:13:09.908Z,1.30
2022-08-21T22:15:37.917Z,2.17
2022-08-21T22:18:08.576Z,1.23
2022-08-21T22:23:10.308Z,1.58
2022-08-21T22:25:42.686Z,1.48
2022-08-21T22:28:12.046Z,1.77
2022-08-21T22:30:45.213Z,1.30
2022-08-21T22:33:15.991Z,1.30
2022-08-21T22:35:51.727Z,1.40
2022-08-21T22:38:21.740Z,1.38
2022-08-21T22:40:50.545Z,1.60
2022-08-21T22:43:20.590Z,1.55
2022-08-21T22:45:56.649Z,1.55
2022-08-21T22:48:25.205Z,1.42
2022-08-21T22:50:56.652Z,1.38
2022-08-21T22:55:56.821Z,1.38
2022-08-21T22:58:27.386Z,1.67
2022-08-21T23:00:56.992Z,1.33
2022-08-21T23:03:30.398Z,1.50
2022-08-21T23:05:58.781Z,1.55
2022-08-21T23:08:30.224Z,1.73
2022-08-21T23:11:02.330Z,1.55
2022-08-21T23:13:40.453Z,1.42
2022-08-21T23:16:16.288Z,1.50
2022-08-21T23:18:56.984Z,1.50
2022-08-21T23:21:37.108Z,1.67
2022-08-21T23:24:25.864Z,1.30
2022-08-21T23:30:03.056Z,1.40
2022-08-21T23:32:53.867Z,1.30
2022-08-21T23:35:23.944Z,1.25
2022-08-21T23:37:58.139Z,1.48
2022-08-21T23:40:38.029Z,1.42
2022-08-21T23:43:27.633Z,1.52
2022-08-21T23:46:14.300Z,1.38
2022-08-21T23:48:52.669Z,1.30
2022-08-21T23:51:28.935Z,1.50
2022-08-21T23:54:09.954Z,1.25
2022-08-21T23:56:52.392Z,1.38
2022-08-21T23:59:29.743Z,1.80
